createdAt,value
2023-09-15T16:39:46.751Z,3.15
2023-09-15T16:42:14.801Z,2.65
2023-09-15T16:44:42.934Z,2.90
2023-09-15T16:47:13.496Z,2.80
2023-09-15T16:49:41.794Z,2.85
2023-09-15T16:52:09.866Z,2.80
2023-09-15T16:54:38.078Z,3.05
2023-09-15T16:57:07.984Z,2.92
2023-09-15T16:59:36.327Z,3.03
2023-09-15T17:02:09.276Z,3.13
2023-09-15T17:04:38.088Z,2.80
2023-09-15T17:07:06.440Z,3.15
2023-09-15T17:09:35.901Z,3.55
2023-09-15T17:12:04.128Z,2.58
2023-09-15T17:14:33.843Z,3.22
2023-09-15T17:17:02.083Z,2.88
2023-09-15T17:19:30.368Z,3.17
2023-09-15T17:22:05.307Z,3.25
2023-09-15T17:24:46.106Z,3.17
2023-09-15T17:27:19.188Z,3.22
2023-09-15T17:30:07.723Z,3.10
2023-09-15T17:32:48.841Z,3.33
2023-09-15T17:35:21.128Z,3.33
2023-09-15T17:38:32.270Z,3.78
2023-09-15T17:41:17.340Z,3.25
2023-09-15T17:43:45.540Z,3.70
2023-09-15T17:46:15.151Z,3.72
2023-09-15T18:14:51.940Z,3.45
2023-09-15T18:17:21.425Z,3.30
2023-09-15T18:19:56.419Z,3.75
2023-09-15T18:22:24.662Z,3.35
2023-09-15T18:24:52.832Z,3.08
2023-09-15T18:27:21.067Z,3.50
2023-09-15T18:29:53.298Z,3.60
2023-09-15T18:32:22.959Z,3.80
2023-09-15T18:34:59.707Z,3.22
2023-09-15T18:37:27.980Z,3.55
2023-09-15T18:39:57.047Z,3.20
2023-09-15T18:42:25.361Z,3.50
2023-09-15T18:44:53.534Z,3.80
2023-09-15T18:47:24.638Z,3.55
2023-09-15T18:49:53.711Z,3.70
2023-09-15T18:52:22.156Z,3.22
2023-09-15T18:54:57.797Z,4.75
2023-09-15T18:57:35.057Z,3.50
2023-09-15T19:00:07.560Z,3.55
2023-09-15T19:02:45.836Z,3.50
2023-09-15T19:05:16.075Z,3.50
2023-09-15T19:07:44.188Z,3.60
2023-09-15T19:10:28.551Z,3.75
2023-09-15T19:13:32.293Z,3.67
2023-09-15T19:16:11.352Z,4.20
2023-09-15T19:18:47.655Z,4.05
2023-09-15T19:21:27.907Z,3.75
2023-09-15T19:23:57.388Z,3.85
2023-09-15T19:30:15.142Z,3.50
2023-09-15T19:32:59.742Z,4.22
2023-09-15T19:35:53.167Z,4.70
2023-09-15T19:44:56.246Z,4.53
2023-09-15T19:47:47.649Z,4.43
2023-09-15T19:50:15.730Z,4.53
2023-09-15T19:52:46.664Z,4.03
